createdAt,value
2023-10-06T00:00:40.682Z,0
2023-10-06T00:02:20.439Z,0
2023-10-06T00:04:00.298Z,0
2023-10-06T00:05:39.995Z,0
2023-10-06T00:07:19.809Z,0
2023-10-06T00:08:59.496Z,0
2023-10-06T00:10:39.260Z,0
2023-10-06T00:12:19.022Z,0
2023-10-06T00:13:58.789Z,0
2023-10-06T00:15:38.576Z,0
2023-10-06T00:17:18.374Z,0
2023-10-06T00:18:58.100Z,0
2023-10-06T00:20:37.860Z,0
2023-10-06T00:22:17.636Z,0
2023-10-06T00:23:57.384Z,0
2023-10-06T00:25:37.230Z,0
2023-10-06T00:27:17.025Z,0
2023-10-06T00:28:56.660Z,0
2023-10-06T00:30:36.613Z,0
2023-10-06T00:32:16.184Z,0
2023-10-06T00:33:56.001Z,0
2023-10-06T00:35:35.719Z,0
2023-10-06T00:37:15.497Z,0
2023-10-06T00:38:55.307Z,0
2023-10-06T00:40:35.021Z,0
2023-10-06T00:42:14.783Z,0
2023-10-06T00:43:54.592Z,0
2023-10-06T00:45:34.559Z,0
2023-10-06T00:47:14.072Z,0
2023-10-06T00:48:53.818Z,0
2023-10-06T00:50:33.628Z,0
2023-10-06T00:52:13.365Z,0
2023-10-06T00:53:53.118Z,0
2023-10-06T00:55:33.068Z,0
2023-10-06T00:57:12.671Z,0
2023-10-06T00:58:52.438Z,0
2023-10-06T01:00:32.174Z,0
2023-10-06T01:02:11.951Z,0
2023-10-06T01:03:51.826Z,0
2023-10-06T01:05:31.548Z,0
2023-10-06T01:07:11.246Z,0
2023-10-06T01:08:51.006Z,0
2023-10-06T01:10:30.929Z,0
2023-10-06T01:12:10.565Z,0
2023-10-06T01:13:50.387Z,0
2023-10-06T01:15:30.070Z,0
2023-10-06T01:17:09.820Z,0
2023-10-06T01:18:49.712Z,0
2023-10-06T01:20:29.355Z,0
2023-10-06T01:22:09.156Z,0
2023-10-06T01:23:48.941Z,0
2023-10-06T01:25:28.639Z,0
2023-10-06T01:27:08.425Z,0
2023-10-06T01:28:48.399Z,0
2023-10-06T01:30:27.951Z,0
2023-10-06T01:32:07.765Z,0
2023-10-06T01:33:47.456Z,0
2023-10-06T01:35:27.335Z,0
2023-10-06T01:37:07.077Z,0
2023-10-06T01:38:46.835Z,0
2023-10-06T01:40:26.689Z,0
2023-10-06T01:42:06.358Z,0
2023-10-06T01:43:46.039Z,0
2023-10-06T01:45:25.884Z,0
2023-10-06T01:47:05.635Z,0
2023-10-06T01:48:45.347Z,0
2023-10-06T01:52:04.877Z,0
2023-10-06T01:55:24.499Z,0
2023-10-06T01:57:04.170Z,0
2023-10-06T01:58:43.982Z,0
2023-10-06T02:00:23.677Z,0
2023-10-06T02:02:03.449Z,0
2023-10-06T02:03:43.216Z,0
2023-10-06T02:05:23.063Z,0
2023-10-06T02:07:02.742Z,0
2023-10-06T02:08:42.540Z,0
2023-10-06T02:10:22.300Z,0
2023-10-06T02:12:02.037Z,0
2023-10-06T02:13:41.832Z,0
2023-10-06T02:15:21.590Z,0
2023-10-06T02:17:01.383Z,0
2023-10-06T02:18:41.087Z,0
2023-10-06T02:20:20.837Z,0
2023-10-06T02:22:00.617Z,0
2023-10-06T02:23:40.500Z,0
2023-10-06T02:25:20.133Z,0
2023-10-06T02:26:59.906Z,0
2023-10-06T02:28:39.716Z,0
2023-10-06T02:30:19.568Z,0
2023-10-06T02:31:59.196Z,0
2023-10-06T02:33:38.971Z,0
2023-10-06T02:35:18.733Z,0
2023-10-06T02:36:58.506Z,0
2023-10-06T02:38:38.249Z,0
2023-10-06T02:40:18.056Z,0
2023-10-06T02:41:57.785Z,0
2023-10-06T02:43:37.555Z,0
2023-10-06T02:45:17.376Z,0
2023-10-06T02:46:57.074Z,0
2023-10-06T02:48:36.827Z,0
2023-10-06T02:50:16.586Z,0
2023-10-06T02:51:56.370Z,0
2023-10-06T02:53:36.120Z,0
2023-10-06T02:55:15.898Z,0
2023-10-06T02:56:55.662Z,0
2023-10-06T02:58:35.447Z,0
2023-10-06T03:00:15.288Z,0
2023-10-06T03:01:54.939Z,0
2023-10-06T03:03:34.720Z,0
2023-10-06T03:05:14.483Z,0
2023-10-06T03:06:54.247Z,0
2023-10-06T03:08:34.117Z,0
2023-10-06T03:11:53.530Z,0
2023-10-06T03:13:33.291Z,0
2023-10-06T03:15:13.169Z,0
2023-10-06T03:16:52.878Z,0
2023-10-06T03:18:32.707Z,0
2023-10-06T03:20:12.449Z,0
2023-10-06T03:21:52.162Z,0
2023-10-06T03:23:31.875Z,0
2023-10-06T03:25:11.634Z,0
2023-10-06T03:26:51.457Z,0
2023-10-06T03:28:31.179Z,0
2023-10-06T03:30:10.927Z,0
2023-10-06T03:31:50.706Z,0
2023-10-06T03:33:30.463Z,0
2023-10-06T03:35:10.223Z,0
2023-10-06T03:36:50.011Z,0
2023-10-06T03:38:29.752Z,0
2023-10-06T03:40:09.530Z,0
2023-10-06T03:41:49.330Z,0
2023-10-06T03:43:29.046Z,0
2023-10-06T03:45:08.851Z,0
2023-10-06T03:46:48.573Z,0
2023-10-06T03:48:28.332Z,0
2023-10-06T03:50:08.114Z,0
2023-10-06T03:51:48.035Z,0
2023-10-06T03:53:27.636Z,0
2023-10-06T03:55:07.380Z,0
2023-10-06T03:56:47.158Z,0
2023-10-06T03:58:26.948Z,0
2023-10-06T04:00:06.703Z,0
2023-10-06T04:01:46.460Z,0
2023-10-06T04:03:26.212Z,0
2023-10-06T04:05:05.994Z,0
2023-10-06T04:06:45.908Z,0
2023-10-06T04:08:25.548Z,0
2023-10-06T04:10:05.324Z,0
2023-10-06T04:11:45.026Z,0
2023-10-06T04:13:24.804Z,0
2023-10-06T04:15:04.552Z,0
2023-10-06T04:16:44.403Z,0
2023-10-06T04:18:24.104Z,0
2023-10-06T04:20:03.863Z,0
2023-10-06T04:21:43.629Z,0
2023-10-06T04:23:23.373Z,0
2023-10-06T04:25:03.140Z,0
2023-10-06T04:26:42.970Z,0
2023-10-06T04:28:22.678Z,0
2023-10-06T04:30:02.454Z,0
2023-10-06T04:31:42.305Z,0
2023-10-06T04:33:22.004Z,0
2023-10-06T04:35:01.728Z,0
2023-10-06T04:36:41.503Z,0
2023-10-06T04:38:21.265Z,0
2023-10-06T04:40:01.023Z,0
2023-10-06T04:41:40.780Z,0
2023-10-06T04:43:20.539Z,0
2023-10-06T04:45:00.324Z,0
2023-10-06T04:46:40.137Z,0
2023-10-06T04:48:19.831Z,0
2023-10-06T04:49:59.637Z,0
2023-10-06T04:51:39.456Z,0
2023-10-06T04:53:19.118Z,0
2023-10-06T04:54:58.886Z,0
2023-10-06T04:56:38.740Z,0
2023-10-06T04:58:18.543Z,0
2023-10-06T04:59:58.234Z,0
2023-10-06T05:01:38.006Z,0
2023-10-06T05:03:17.761Z,0
2023-10-06T05:04:57.474Z,0
2023-10-06T05:06:37.235Z,0
2023-10-06T05:08:16.995Z,0
2023-10-06T05:09:56.770Z,0
2023-10-06T05:11:36.530Z,0
2023-10-06T05:13:16.302Z,0
2023-10-06T05:14:56.102Z,0
2023-10-06T05:16:35.907Z,0
2023-10-06T05:18:15.597Z,0
2023-10-06T05:19:55.358Z,0
2023-10-06T05:21:35.103Z,0
2023-10-06T05:23:14.870Z,0
2023-10-06T05:24:54.642Z,0
2023-10-06T05:26:34.422Z,0
2023-10-06T05:28:14.166Z,0
2023-10-06T05:29:53.957Z,0.01
2023-10-06T05:31:33.717Z,0
2023-10-06T05:33:13.446Z,0.01
2023-10-06T05:34:53.221Z,0.02
2023-10-06T05:36:33.127Z,0.01
2023-10-06T05:38:12.822Z,0.02
2023-10-06T05:39:52.654Z,0.03
2023-10-06T05:41:32.303Z,0.04
2023-10-06T05:43:12.084Z,0.05
2023-10-06T05:44:51.907Z,0.06
2023-10-06T05:46:31.676Z,0.05
2023-10-06T05:48:11.382Z,0.05
2023-10-06T05:49:51.126Z,0.06
2023-10-06T05:51:30.887Z,0.07
2023-10-06T05:53:10.638Z,0.07
2023-10-06T05:54:50.383Z,0.06
2023-10-06T05:56:30.233Z,0.06
2023-10-06T05:58:09.943Z,0.07
2023-10-06T05:59:49.774Z,0.08
2023-10-06T06:01:29.633Z,0.08
2023-10-06T06:03:09.333Z,0.08
2023-10-06T06:04:49.026Z,0.09
2023-10-06T06:06:28.969Z,0.09
2023-10-06T06:08:08.663Z,0.09
2023-10-06T06:09:48.283Z,0.09
2023-10-06T06:11:28.208Z,0.11
2023-10-06T06:13:07.927Z,0.11
2023-10-06T06:14:47.707Z,0.14
2023-10-06T06:16:27.442Z,0.16
2023-10-06T06:18:07.079Z,0.16
2023-10-06T06:19:47.062Z,0.15
2023-10-06T06:21:26.776Z,0.16
2023-10-06T06:23:06.467Z,0.18
2023-10-06T06:24:46.329Z,0.21
2023-10-06T06:26:26.019Z,0.2
2023-10-06T06:28:05.678Z,0.24
2023-10-06T06:29:45.580Z,0.27
2023-10-06T06:31:25.202Z,0.33
2023-10-06T06:33:05.021Z,0.35
2023-10-06T06:34:44.945Z,0.38
2023-10-06T06:36:24.482Z,0.41
2023-10-06T06:38:04.253Z,0.45
2023-10-06T06:39:44.166Z,0.36
2023-10-06T06:41:23.870Z,0.45
2023-10-06T06:43:03.555Z,0.43
2023-10-06T06:44:43.542Z,0.39
2023-10-06T06:46:23.068Z,0.37
2023-10-06T06:48:03.196Z,0.31
2023-10-06T06:49:42.714Z,0.28
2023-10-06T06:51:22.373Z,0.27
2023-10-06T06:53:02.239Z,0.26
2023-10-06T06:54:41.915Z,0.26
2023-10-06T06:56:21.715Z,0.26
2023-10-06T06:58:01.452Z,0.25
2023-10-06T06:59:41.195Z,0.25
2023-10-06T07:01:21.044Z,0.28
2023-10-06T07:03:00.877Z,0.34
2023-10-06T07:06:20.388Z,0.41
2023-10-06T07:08:00.103Z,0.43
2023-10-06T07:09:39.791Z,0.44
2023-10-06T07:11:19.739Z,0.38
2023-10-06T07:12:59.434Z,0.39
2023-10-06T07:14:39.065Z,0.38
2023-10-06T07:16:19.009Z,0.39
2023-10-06T07:17:58.594Z,0.36
2023-10-06T07:19:38.351Z,0.35
2023-10-06T07:21:18.187Z,0.36
2023-10-06T07:22:58.010Z,0.37
2023-10-06T07:24:37.639Z,0.39
2023-10-06T07:26:17.568Z,0.41
2023-10-06T07:27:57.412Z,0.45
2023-10-06T07:29:36.982Z,0.15
2023-10-06T07:31:16.841Z,0.16
2023-10-06T07:32:56.619Z,0.16
2023-10-06T07:34:36.224Z,0.16
2023-10-06T07:36:16.136Z,0.15
2023-10-06T07:37:55.830Z,0.15
2023-10-06T07:39:35.517Z,0.15
2023-10-06T07:41:15.339Z,0.15
2023-10-06T07:42:55.061Z,0.13
2023-10-06T07:44:34.831Z,0.14
2023-10-06T07:46:14.723Z,0.13
2023-10-06T07:47:54.358Z,0.13
2023-10-06T07:49:34.201Z,0.13
2023-10-06T07:51:13.904Z,0.13
2023-10-06T07:52:53.640Z,0.12
2023-10-06T07:54:33.387Z,0.12
2023-10-06T07:56:13.187Z,0.12
2023-10-06T07:57:52.926Z,0.12
2023-10-06T07:59:32.867Z,0.12
2023-10-06T08:01:12.466Z,0.11
2023-10-06T08:02:52.241Z,0.11
2023-10-06T08:04:31.991Z,0.11
2023-10-06T08:06:11.862Z,0.11
2023-10-06T08:07:51.507Z,0.11
2023-10-06T08:09:31.381Z,0.11
2023-10-06T08:11:11.126Z,0.11
2023-10-06T08:12:50.797Z,0.1
2023-10-06T08:14:30.569Z,0.11
2023-10-06T08:16:10.371Z,0.1
2023-10-06T08:17:50.101Z,0.1
2023-10-06T08:19:29.877Z,0.1
2023-10-06T08:21:09.673Z,0.1
2023-10-06T08:24:29.142Z,0.1
2023-10-06T08:26:09.129Z,0.1
2023-10-06T08:27:48.803Z,0.1
2023-10-06T08:29:28.440Z,0.1
2023-10-06T08:31:08.321Z,0.1
2023-10-06T08:32:48.120Z,0.1
2023-10-06T08:34:27.796Z,0.09
2023-10-06T08:36:07.579Z,0.09
2023-10-06T08:37:47.306Z,0.09
2023-10-06T08:39:27.020Z,0.09
2023-10-06T08:41:06.993Z,0.1
2023-10-06T08:42:46.651Z,0.09
2023-10-06T08:44:26.314Z,0.08
2023-10-06T08:46:06.181Z,0.08
2023-10-06T08:51:05.428Z,0.09
2023-10-06T08:54:24.990Z,0.08
2023-10-06T08:56:04.725Z,0.09
2023-10-06T08:57:44.508Z,0.09
2023-10-06T08:59:24.290Z,0.08
2023-10-06T09:01:03.987Z,0.08
2023-10-06T09:02:43.740Z,0.08
2023-10-06T09:04:23.491Z,0.08
2023-10-06T09:06:03.249Z,0.08
2023-10-06T09:07:43.058Z,0.08
2023-10-06T09:09:22.851Z,0.08
2023-10-06T09:11:02.763Z,0.08
2023-10-06T09:12:42.627Z,0.08
2023-10-06T09:14:22.448Z,0.08
2023-10-06T09:16:02.121Z,0.08
2023-10-06T09:17:41.792Z,0.08
2023-10-06T09:21:01.498Z,0.07
2023-10-06T09:22:41.213Z,0.08
2023-10-06T09:24:20.809Z,0.07
2023-10-06T09:26:00.738Z,0.08
2023-10-06T09:27:40.287Z,0.07
2023-10-06T09:29:20.226Z,0.01
2023-10-06T09:31:00.100Z,0.05
2023-10-06T09:32:39.805Z,0.05
2023-10-06T09:35:59.321Z,0.05
2023-10-06T09:37:38.760Z,0.05
2023-10-06T09:39:18.539Z,0.05
2023-10-06T09:40:58.505Z,0.05
2023-10-06T09:42:38.196Z,0.05
2023-10-06T09:44:17.891Z,0.05
2023-10-06T09:45:57.581Z,0.05
2023-10-06T09:47:37.669Z,0.05
2023-10-06T09:49:17.267Z,0.05
2023-10-06T09:50:56.983Z,0.04
2023-10-06T09:52:36.963Z,0.05
2023-10-06T09:54:16.798Z,0.05
2023-10-06T09:55:56.227Z,0.05
2023-10-06T09:57:36.033Z,0.05
2023-10-06T09:59:15.691Z,0.05
2023-10-06T10:00:55.656Z,0.05
2023-10-06T10:02:35.487Z,0.05
2023-10-06T10:04:15.225Z,0.05
2023-10-06T10:05:54.976Z,0.05
2023-10-06T10:07:34.685Z,0.05
2023-10-06T10:09:14.411Z,0.04
2023-10-06T10:10:54.041Z,0.05
2023-10-06T10:12:34.148Z,0.05
2023-10-06T10:14:13.576Z,0.05
2023-10-06T10:15:53.468Z,0.05
2023-10-06T10:17:33.420Z,0.05
2023-10-06T10:20:52.916Z,0.05
2023-10-06T10:22:32.682Z,0.05
2023-10-06T10:24:12.170Z,0.05
2023-10-06T10:25:52.062Z,0.05
2023-10-06T10:27:32.012Z,0.05
2023-10-06T10:29:11.661Z,0.04
2023-10-06T10:30:51.514Z,0.05
2023-10-06T10:32:31.282Z,0.04
2023-10-06T10:34:10.983Z,0.04
2023-10-06T10:35:50.588Z,0.04
2023-10-06T10:37:30.450Z,0.05
2023-10-06T10:39:10.343Z,0.04
2023-10-06T10:42:29.678Z,0.04
2023-10-06T10:44:09.594Z,0.04
2023-10-06T10:45:49.526Z,0.04
2023-10-06T10:47:29.225Z,0.04
2023-10-06T10:50:48.598Z,0.04
2023-10-06T10:52:28.435Z,0.04
2023-10-06T10:54:08.161Z,0.04
2023-10-06T10:55:47.963Z,0.04
2023-10-06T10:57:27.558Z,0.04
2023-10-06T10:59:07.340Z,0.04
2023-10-06T11:00:46.994Z,0.04
2023-10-06T11:02:26.958Z,0.04
2023-10-06T11:04:06.768Z,0.04
2023-10-06T11:05:46.539Z,0.04
2023-10-06T11:07:26.366Z,0.04
2023-10-06T11:09:05.906Z,0.04
2023-10-06T11:10:45.795Z,0.04
2023-10-06T11:12:25.323Z,0.04
2023-10-06T11:14:05.368Z,0.04
2023-10-06T11:15:44.832Z,0.04
2023-10-06T11:17:24.998Z,0.04
2023-10-06T11:19:04.514Z,0.04
2023-10-06T11:20:44.114Z,0.03
2023-10-06T11:22:24.067Z,0.04
2023-10-06T11:24:03.992Z,0.03
2023-10-06T11:25:43.673Z,0.03
2023-10-06T11:27:23.421Z,0.03
2023-10-06T11:29:03.353Z,0.03
2023-10-06T11:30:42.892Z,0.03
2023-10-06T11:32:22.801Z,0.03
2023-10-06T11:34:02.238Z,0.03
2023-10-06T11:35:42.309Z,0.03
2023-10-06T11:37:21.995Z,0.04
2023-10-06T11:40:41.632Z,0.03
2023-10-06T11:42:21.369Z,0.03
2023-10-06T11:44:01.026Z,0.03
2023-10-06T11:45:40.875Z,0.03
2023-10-06T11:47:20.385Z,0.03
2023-10-06T11:49:00.448Z,0.03
2023-10-06T11:50:40.233Z,0.03
2023-10-06T11:53:59.687Z,0.03
2023-10-06T11:55:39.467Z,0.03
2023-10-06T11:57:19.108Z,0.03
2023-10-06T11:58:59.021Z,0.03
2023-10-06T12:00:38.760Z,0.03
2023-10-06T12:02:18.516Z,0.03
2023-10-06T12:03:58.348Z,0.03
2023-10-06T12:05:38.071Z,0.03
2023-10-06T12:07:17.650Z,0.03
2023-10-06T12:08:57.637Z,0.03
2023-10-06T12:10:37.346Z,0.03
2023-10-06T12:12:17.115Z,0.03
2023-10-06T12:13:56.570Z,0.03
2023-10-06T12:15:36.657Z,0.03
2023-10-06T12:17:16.540Z,0.03
2023-10-06T12:18:56.171Z,0.03
2023-10-06T12:20:36.028Z,0.03
2023-10-06T12:22:15.700Z,0.03
2023-10-06T12:23:55.260Z,0.03
2023-10-06T12:25:35.268Z,0.03
2023-10-06T12:27:15.009Z,0.03
2023-10-06T12:28:54.723Z,0.03
2023-10-06T12:30:34.214Z,0.03
2023-10-06T12:32:14.079Z,0.03
2023-10-06T12:33:53.889Z,0.03
2023-10-06T12:35:33.644Z,0.03
2023-10-06T12:37:13.621Z,0.03
2023-10-06T12:38:53.354Z,0.03
2023-10-06T12:40:33.152Z,0.03
2023-10-06T12:42:12.804Z,0.03
2023-10-06T12:43:52.631Z,0.03
2023-10-06T12:45:32.350Z,0.03
2023-10-06T12:47:11.895Z,0.03
2023-10-06T12:48:51.969Z,0.03
2023-10-06T12:50:31.652Z,0.03
2023-10-06T12:52:11.391Z,0.03
2023-10-06T12:53:51.012Z,0.03
2023-10-06T12:55:31.036Z,0.03
2023-10-06T12:57:10.671Z,0.03
2023-10-06T12:58:50.445Z,0.03
2023-10-06T13:00:30.273Z,0.03
2023-10-06T13:02:10.037Z,0.03
2023-10-06T13:03:49.697Z,0.03
2023-10-06T13:05:29.611Z,0.03
2023-10-06T13:07:09.346Z,0.03
2023-10-06T13:08:49.040Z,0.03
2023-10-06T13:10:28.983Z,0.03
2023-10-06T13:13:48.424Z,0.03
2023-10-06T13:15:28.140Z,0.03
2023-10-06T13:17:07.898Z,0.03
2023-10-06T13:18:47.579Z,0.03
2023-10-06T13:20:27.417Z,0.03
2023-10-06T13:22:07.076Z,0.03
2023-10-06T13:23:46.920Z,0.03
2023-10-06T13:25:26.802Z,0.03
2023-10-06T13:27:06.320Z,0.03
2023-10-06T13:28:46.322Z,0.03
2023-10-06T13:30:26.154Z,0.02
2023-10-06T13:32:05.764Z,0.03
2023-10-06T13:33:45.584Z,0.03
2023-10-06T13:35:25.011Z,0.03
2023-10-06T13:37:05.063Z,0.03
2023-10-06T13:38:44.534Z,0.03
2023-10-06T13:40:24.637Z,0.03
2023-10-06T13:42:04.491Z,0.03
2023-10-06T13:43:44.143Z,0.03
2023-10-06T13:45:23.609Z,0.03
2023-10-06T13:47:03.752Z,0.03
2023-10-06T13:48:43.468Z,0.03
2023-10-06T13:50:23.367Z,0.02
2023-10-06T13:52:02.913Z,0.02
2023-10-06T13:53:42.858Z,0.03
2023-10-06T13:55:22.469Z,0.03
2023-10-06T13:57:02.256Z,0.03
2023-10-06T13:58:41.997Z,0.03
2023-10-06T14:02:01.631Z,0.02
2023-10-06T14:03:41.301Z,0.02
2023-10-06T14:05:20.930Z,0.02
2023-10-06T14:07:00.935Z,0.02
2023-10-06T14:08:40.623Z,0.02
2023-10-06T14:10:20.347Z,0.02
2023-10-06T14:12:00.147Z,0.03
2023-10-06T14:13:39.703Z,0.03
2023-10-06T14:15:19.366Z,0.02
2023-10-06T14:16:59.387Z,0.03
2023-10-06T14:18:39.239Z,0.02
2023-10-06T14:20:18.858Z,0.02
2023-10-06T14:21:58.670Z,0.02
2023-10-06T14:23:38.506Z,0.02
2023-10-06T14:25:18.198Z,0.02
2023-10-06T14:26:57.921Z,0.02
2023-10-06T14:28:37.793Z,0.02
2023-10-06T14:30:17.532Z,0.02
2023-10-06T14:31:57.217Z,0.02
2023-10-06T14:35:16.692Z,0.02
2023-10-06T14:36:56.589Z,0.02
2023-10-06T14:38:36.085Z,0.02
2023-10-06T14:40:16.165Z,0.02
2023-10-06T14:41:55.899Z,0.02
2023-10-06T14:43:35.647Z,0.02
2023-10-06T14:45:15.429Z,0.02
2023-10-06T14:46:54.989Z,0.02
2023-10-06T14:48:34.767Z,0.03
2023-10-06T14:53:34.218Z,0.02
2023-10-06T14:55:13.761Z,0.02
2023-10-06T14:56:53.625Z,0.03
2023-10-06T14:58:33.631Z,0.03
2023-10-06T15:00:13.233Z,0.03
2023-10-06T15:01:53.073Z,0.03
2023-10-06T15:03:32.780Z,0.03
2023-10-06T15:05:12.379Z,0.03
2023-10-06T15:06:52.347Z,0.03
2023-10-06T15:08:32.024Z,0.03
2023-10-06T15:10:11.900Z,0.03
2023-10-06T15:11:51.363Z,0.03
2023-10-06T15:13:31.241Z,0.03
2023-10-06T15:15:11.064Z,0.03
2023-10-06T15:16:50.730Z,0.03
2023-10-06T15:18:30.648Z,0.03
2023-10-06T15:20:10.271Z,0.03
2023-10-06T15:21:50.104Z,0.03
2023-10-06T15:23:30.072Z,0.03
2023-10-06T15:25:09.647Z,0.03
2023-10-06T15:26:49.528Z,0.03
2023-10-06T15:28:29.293Z,0.02
2023-10-06T15:30:08.996Z,0.02
2023-10-06T15:31:48.610Z,0.03
2023-10-06T15:33:28.493Z,0.03
2023-10-06T15:35:08.243Z,0.02
2023-10-06T15:36:48.160Z,0.02
2023-10-06T15:38:27.906Z,0.03
2023-10-06T15:40:07.577Z,0.02
2023-10-06T15:41:47.459Z,0.02
2023-10-06T15:43:27.179Z,0.02
2023-10-06T15:45:06.940Z,0.03
2023-10-06T15:46:46.725Z,0.04
2023-10-06T15:48:26.435Z,0.04
2023-10-06T15:50:06.188Z,0.03
2023-10-06T15:51:46.048Z,0.02
2023-10-06T15:53:25.746Z,0.03
2023-10-06T15:55:05.264Z,0.04
2023-10-06T15:56:45.336Z,0.06
2023-10-06T15:58:25.020Z,0.07
2023-10-06T16:00:04.474Z,0.06
2023-10-06T16:01:44.592Z,0.07
2023-10-06T16:03:24.124Z,0.07
2023-10-06T16:05:03.773Z,0.06
2023-10-06T16:06:43.801Z,0.06
2023-10-06T16:08:23.678Z,0.05
2023-10-06T16:10:03.060Z,0.05
2023-10-06T16:11:43.047Z,0.04
2023-10-06T16:13:22.905Z,0.03
2023-10-06T16:15:02.347Z,0.02
2023-10-06T16:16:42.401Z,0.01
2023-10-06T16:18:22.218Z,0.02
2023-10-06T16:20:01.895Z,0.01
2023-10-06T16:21:41.704Z,0
2023-10-06T16:23:21.344Z,0
2023-10-06T16:25:01.328Z,0
2023-10-06T16:26:40.935Z,0
2023-10-06T16:28:20.838Z,0
2023-10-06T16:30:00.615Z,0
2023-10-06T16:31:40.165Z,0
2023-10-06T16:33:20.103Z,0
2023-10-06T16:34:59.857Z,0
2023-10-06T16:36:39.596Z,0
2023-10-06T16:38:19.425Z,0
2023-10-06T16:39:59.101Z,0
2023-10-06T16:41:38.871Z,0
2023-10-06T16:43:18.675Z,0
2023-10-06T16:44:58.412Z,0
2023-10-06T16:46:38.150Z,0
2023-10-06T16:48:17.650Z,0
2023-10-06T16:49:57.528Z,0
2023-10-06T16:51:37.471Z,0
2023-10-06T16:53:16.936Z,0
2023-10-06T16:54:56.968Z,0
2023-10-06T16:56:36.802Z,0
2023-10-06T16:58:16.505Z,0
2023-10-06T16:59:55.981Z,0
2023-10-06T17:01:35.978Z,0
2023-10-06T17:03:15.709Z,0
2023-10-06T17:04:55.541Z,0
2023-10-06T17:06:35.437Z,0
2023-10-06T17:08:15.125Z,0
2023-10-06T17:09:54.928Z,0
2023-10-06T17:11:34.522Z,0
2023-10-06T17:13:14.389Z,0
2023-10-06T17:14:54.335Z,0
2023-10-06T17:16:33.958Z,0
2023-10-06T17:18:13.387Z,0
2023-10-06T17:19:53.403Z,0
2023-10-06T17:21:33.279Z,0
2023-10-06T17:23:13.106Z,0
2023-10-06T17:24:52.835Z,0
2023-10-06T17:26:32.506Z,0
2023-10-06T17:28:12.338Z,0
2023-10-06T17:29:51.839Z,0
2023-10-06T17:31:31.711Z,0
2023-10-06T17:33:11.430Z,0
2023-10-06T17:34:51.029Z,0
2023-10-06T17:36:30.985Z,0
2023-10-06T17:39:50.587Z,0
2023-10-06T17:41:30.077Z,0
2023-10-06T17:43:10.129Z,0
2023-10-06T17:44:49.605Z,0
2023-10-06T17:46:29.374Z,0
2023-10-06T17:48:09.502Z,0
2023-10-06T17:49:49.331Z,0
2023-10-06T17:51:28.995Z,0
2023-10-06T17:53:08.727Z,0
2023-10-06T17:54:48.190Z,0
2023-10-06T17:58:08.109Z,0
2023-10-06T17:59:47.771Z,0
2023-10-06T18:01:27.248Z,0
2023-10-06T18:03:07.352Z,0
2023-10-06T18:04:47.097Z,0
2023-10-06T18:06:26.579Z,0
2023-10-06T18:08:06.714Z,0
2023-10-06T18:09:46.384Z,0
2023-10-06T18:11:25.972Z,0
2023-10-06T18:13:05.592Z,0
2023-10-06T18:14:45.759Z,0
2023-10-06T18:16:25.437Z,0
2023-10-06T18:19:44.948Z,0
2023-10-06T18:21:24.809Z,0
2023-10-06T18:23:04.180Z,0
2023-10-06T18:24:44.434Z,0
2023-10-06T18:26:24.025Z,0
2023-10-06T18:28:03.805Z,0
2023-10-06T18:31:23.384Z,0
2023-10-06T18:33:03.189Z,0
2023-10-06T18:34:42.916Z,0
2023-10-06T18:36:22.620Z,0
2023-10-06T18:39:42.168Z,0
2023-10-06T18:41:21.679Z,0
2023-10-06T18:43:01.599Z,0
2023-10-06T18:44:41.441Z,0
2023-10-06T18:46:21.179Z,0
2023-10-06T18:48:01.055Z,0
2023-10-06T18:49:40.831Z,0
2023-10-06T18:51:20.458Z,0
2023-10-06T18:53:00.267Z,0
2023-10-06T18:54:39.821Z,0
2023-10-06T18:56:19.582Z,0
2023-10-06T18:57:59.505Z,0
2023-10-06T18:59:39.252Z,0
2023-10-06T19:02:58.524Z,0
2023-10-06T19:04:38.593Z,0
2023-10-06T19:06:18.462Z,0
2023-10-06T19:07:58.120Z,0
2023-10-06T19:09:37.810Z,0
2023-10-06T19:11:17.352Z,0
2023-10-06T19:12:57.422Z,0
2023-10-06T19:14:37.075Z,0
2023-10-06T19:16:16.840Z,0
2023-10-06T19:17:56.401Z,0
2023-10-06T19:19:36.312Z,0
2023-10-06T19:21:16.182Z,0
2023-10-06T19:22:55.834Z,0
2023-10-06T19:24:35.797Z,0
2023-10-06T19:26:15.498Z,0
2023-10-06T19:27:54.992Z,0
2023-10-06T19:29:35.059Z,0
2023-10-06T19:31:14.504Z,0
2023-10-06T19:32:54.615Z,0
2023-10-06T19:34:34.031Z,0
2023-10-06T19:36:14.137Z,0
2023-10-06T19:37:53.845Z,0
2023-10-06T19:39:33.340Z,0
2023-10-06T19:41:13.423Z,0
2023-10-06T19:42:53.245Z,0
2023-10-06T19:44:32.988Z,0
2023-10-06T19:46:12.477Z,0
2023-10-06T19:47:52.450Z,0
2023-10-06T19:49:31.925Z,0
2023-10-06T19:51:12.134Z,0
2023-10-06T19:52:51.442Z,0
2023-10-06T19:54:31.551Z,0
2023-10-06T19:56:11.104Z,0
2023-10-06T19:57:51.098Z,0
2023-10-06T19:59:30.830Z,0
2023-10-06T20:01:10.502Z,0
2023-10-06T20:02:50.019Z,0
2023-10-06T20:04:29.980Z,0
2023-10-06T20:06:09.874Z,0
2023-10-06T20:07:49.624Z,0
2023-10-06T20:09:29.387Z,0
2023-10-06T20:11:09.241Z,0
2023-10-06T20:12:48.904Z,0
2023-10-06T20:14:28.369Z,0
2023-10-06T20:16:08.445Z,0
2023-10-06T20:19:27.805Z,0
2023-10-06T20:21:07.760Z,0
2023-10-06T20:22:47.327Z,0
2023-10-06T20:24:27.167Z,0
2023-10-06T20:26:07.007Z,0
2023-10-06T20:27:46.773Z,0
2023-10-06T20:29:26.640Z,0
2023-10-06T20:31:06.302Z,0
2023-10-06T20:32:46.161Z,0
2023-10-06T20:34:25.778Z,0
2023-10-06T20:36:05.613Z,0
2023-10-06T20:37:45.469Z,0
2023-10-06T20:39:25.036Z,0
2023-10-06T20:41:04.921Z,0
2023-10-06T20:42:44.661Z,0
2023-10-06T20:44:24.352Z,0
2023-10-06T20:46:03.892Z,0
2023-10-06T20:47:43.889Z,0
2023-10-06T20:49:23.675Z,0
2023-10-06T20:51:03.562Z,0
2023-10-06T20:52:43.110Z,0
2023-10-06T20:54:22.705Z,0
2023-10-06T20:56:02.753Z,0
2023-10-06T20:57:42.474Z,0
2023-10-06T20:59:22.023Z,0
2023-10-06T21:01:02.120Z,0
2023-10-06T21:02:41.838Z,0
2023-10-06T21:04:21.352Z,0
2023-10-06T21:06:01.098Z,0
2023-10-06T21:07:40.827Z,0
2023-10-06T21:09:20.880Z,0
2023-10-06T21:11:00.727Z,0
2023-10-06T21:12:40.284Z,0
2023-10-06T21:14:20.229Z,0
2023-10-06T21:15:59.867Z,0
2023-10-06T21:17:39.397Z,0
2023-10-06T21:19:19.457Z,0
2023-10-06T21:20:59.039Z,0
2023-10-06T21:22:38.692Z,0
2023-10-06T21:24:18.763Z,0
2023-10-06T21:25:58.480Z,0
2023-10-06T21:27:38.321Z,0
2023-10-06T21:29:18.086Z,0
2023-10-06T21:30:57.799Z,0
2023-10-06T21:32:37.761Z,0
2023-10-06T21:34:17.407Z,0
2023-10-06T21:35:57.098Z,0
2023-10-06T21:39:16.742Z,0
2023-10-06T21:40:56.253Z,0
2023-10-06T21:42:35.936Z,0
2023-10-06T21:44:15.914Z,0
2023-10-06T21:45:55.528Z,0
2023-10-06T21:47:35.193Z,0
2023-10-06T21:49:15.146Z,0
2023-10-06T21:50:54.794Z,0
2023-10-06T21:52:34.531Z,0
2023-10-06T21:54:14.222Z,0
2023-10-06T21:55:54.230Z,0
2023-10-06T21:57:34.000Z,0
2023-10-06T21:59:13.735Z,0
2023-10-06T22:00:53.313Z,0
2023-10-06T22:02:33.035Z,0
2023-10-06T22:04:13.068Z,0
2023-10-06T22:05:52.797Z,0
2023-10-06T22:07:32.438Z,0
2023-10-06T22:09:12.371Z,0
2023-10-06T22:12:32.052Z,0
2023-10-06T22:14:11.385Z,0
2023-10-06T22:15:51.421Z,0
2023-10-06T22:17:30.913Z,0
2023-10-06T22:19:10.943Z,0
2023-10-06T22:20:50.749Z,0
2023-10-06T22:22:30.216Z,0
2023-10-06T22:24:10.363Z,0
2023-10-06T22:25:50.043Z,0
2023-10-06T22:27:29.640Z,0
2023-10-06T22:29:09.607Z,0
2023-10-06T22:30:49.223Z,0
2023-10-06T22:32:29.088Z,0
2023-10-06T22:34:08.879Z,0
2023-10-06T22:35:48.535Z,0
2023-10-06T22:37:28.411Z,0
2023-10-06T22:39:08.208Z,0
2023-10-06T22:40:47.886Z,0
2023-10-06T22:42:27.719Z,0
2023-10-06T22:44:07.423Z,0
2023-10-06T22:45:47.138Z,0
2023-10-06T22:47:26.851Z,0
2023-10-06T22:49:06.777Z,0
2023-10-06T22:50:46.505Z,0
2023-10-06T22:52:26.290Z,0
2023-10-06T22:54:05.711Z,0
2023-10-06T22:55:45.784Z,0
2023-10-06T22:57:25.466Z,0
2023-10-06T22:59:05.189Z,0
2023-10-06T23:00:45.135Z,0
2023-10-06T23:02:24.609Z,0
2023-10-06T23:04:04.381Z,0
2023-10-06T23:05:44.186Z,0
2023-10-06T23:07:23.833Z,0
2023-10-06T23:09:03.634Z,0
2023-10-06T23:10:43.354Z,0
2023-10-06T23:12:23.115Z,0
2023-10-06T23:14:03.003Z,0
2023-10-06T23:15:42.641Z,0
2023-10-06T23:17:22.416Z,0
2023-10-06T23:19:02.171Z,0
2023-10-06T23:20:41.930Z,0
2023-10-06T23:22:21.719Z,0
2023-10-06T23:24:01.442Z,0
2023-10-06T23:25:41.234Z,0
2023-10-06T23:27:21.178Z,0
2023-10-06T23:29:00.761Z,0
2023-10-06T23:30:40.601Z,0
2023-10-06T23:32:20.340Z,0
2023-10-06T23:34:00.252Z,0
2023-10-06T23:35:40.037Z,0
2023-10-06T23:37:19.694Z,0
2023-10-06T23:38:59.485Z,0
2023-10-06T23:40:39.106Z,0
2023-10-06T23:42:18.904Z,0
2023-10-06T23:43:58.617Z,0
2023-10-06T23:45:38.469Z,0
2023-10-06T23:47:18.222Z,0
2023-10-06T23:48:58.178Z,0
2023-10-06T23:50:37.862Z,0
2023-10-06T23:52:17.739Z,0
2023-10-06T23:53:57.395Z,0
2023-10-06T23:55:36.990Z,0
2023-10-06T23:58:56.513Z,0
